Portada
METAR-TAF:

METAR-TAF

Aeroports :

Aeroport de Svalbard-Longyear

Longyearbyen, Noruega

latitud: 78-15N, longitud: 015-28E, altitud: 2 m

Observació

L'informe es va fer fa 31 minuts, a les 15:50 UTC
Vent 2 kt amb direcció variable
Temperatura -20°C
Humitat 84%
Pressió 1010 hPa
Visibilitat 10 km o més
sense núvols per sota de 1500 mi sense presència de cumulonimbus.

METAR: ENSB 171550Z VRB02KT CAVOK M20/M22 Q1010 RMK WIND 1400FT 25003KT

Hora: 17:21 (16:21 UTC)

Pronòstic

Pronòstic vàlid del 17 a les 12 UTC al 18 a les 12 UTC
Vent 8 kt del Est/Sud-Est
Visibilitat 10 km o més
Núvols disperses a una alçada de 2000 ft
Temporalment
l' 17 a les 18 UTC al 17 a les 21 UTC
Vent 10 kt del Oest/Sud-Oest
Evolucionant progressivament
l' 18 a les 04 UTC al 18 a les 07 UTC
Vent 12 kt del Oest/Sud-Oest

TAF: ENSB 1712/1812 12008KT 9999 SCT020 TEMPO 1718/1721 25010KT BECMG 1804/1807 25012KT

Observacions i pronòstics meteorològics de més de 4000 aeroports (METAR i TAF).

Les estacions disponibles són els punts grocs i vermells al mapa.

Posi el ratolí al punt desitjat per veure el nom de l'estació.

Feu clic per veure les observacions i els pronòstics meteorològics.

Per canviar el mapa: feu clic els botons verds amb una creu de color negre per apropar; al botó verd amb un guió per allunyar la imatge; o en les fletxes verdes per a mapes adjacents.


METAR-TAF: